createdAt,value
2022-08-20T00:00:29.009Z,74.72
2022-08-20T00:01:29.045Z,74.72
2022-08-20T00:02:28.981Z,74.52
2022-08-20T00:03:28.973Z,74.62
2022-08-20T00:04:28.981Z,74.32
2022-08-20T00:05:28.954Z,74.72
2022-08-20T00:06:28.936Z,74.62
2022-08-20T00:07:28.926Z,74.62
2022-08-20T00:08:28.922Z,75.52
2022-08-20T00:09:29.895Z,74.92
2022-08-20T00:10:28.911Z,74.92
2022-08-20T00:11:29.088Z,74.21
2022-08-20T00:12:28.869Z,74.52
2022-08-20T00:13:28.861Z,74.92
2022-08-20T00:14:28.871Z,74.92
2022-08-20T00:15:28.858Z,74.92
2022-08-20T00:16:28.827Z,74.82
2022-08-20T00:17:28.819Z,74.72
2022-08-20T00:18:28.811Z,74.32
2022-08-20T00:19:28.815Z,74.32
2022-08-20T00:20:28.783Z,74.72
2022-08-20T00:21:28.774Z,74.32
2022-08-20T00:22:28.762Z,74.62
2022-08-20T00:23:28.753Z,74.62
2022-08-20T00:24:28.757Z,74.62
2022-08-20T00:25:28.747Z,74.52
2022-08-20T00:26:28.713Z,75.12
2022-08-20T00:27:28.708Z,74.32
2022-08-20T00:28:28.693Z,74.82
2022-08-20T00:29:28.705Z,73.31
2022-08-20T00:30:28.670Z,73.07
2022-08-20T00:31:28.663Z,73.41
2022-08-20T00:32:28.648Z,73.81
2022-08-20T00:33:28.644Z,73.51
2022-08-20T00:34:28.649Z,73.27
2022-08-20T00:35:28.625Z,73.58
2022-08-20T00:36:32.487Z,73.07
2022-08-20T00:37:28.594Z,73.11
2022-08-20T00:38:28.582Z,73.31
2022-08-20T00:39:28.573Z,73.81
2022-08-20T00:40:28.577Z,73.68
2022-08-20T00:41:28.547Z,73.61
2022-08-20T00:42:28.534Z,73.71
2022-08-20T00:43:28.528Z,73.61
2022-08-20T00:44:28.537Z,73.68
2022-08-20T00:45:28.506Z,73.81
2022-08-20T00:46:32.059Z,74.32
2022-08-20T00:47:28.484Z,74.52
2022-08-20T00:48:28.474Z,74.58
2022-08-20T00:49:28.463Z,74.88
2022-08-20T00:50:28.470Z,74.82
2022-08-20T00:51:30.022Z,74.78
2022-08-20T00:52:28.447Z,73.78
2022-08-20T00:53:28.415Z,73.61
2022-08-20T00:54:28.406Z,73.58
2022-08-20T00:55:31.521Z,73.51
2022-08-20T00:56:28.381Z,73.61
2022-08-20T00:57:28.374Z,73.47
2022-08-20T00:58:29.357Z,73.27
2022-08-20T00:59:28.357Z,73.11
2022-08-20T01:00:28.357Z,73.78
2022-08-20T01:01:28.381Z,74.58
2022-08-20T01:02:28.312Z,74.28
2022-08-20T01:03:28.307Z,74.48
2022-08-20T01:04:28.315Z,74.48
2022-08-20T01:05:29.918Z,74.58
2022-08-20T01:06:28.273Z,74.78
2022-08-20T01:07:28.283Z,74.28
2022-08-20T01:08:28.258Z,74.68
2022-08-20T01:09:50.189Z,74.38
2022-08-20T01:10:29.251Z,74.48
2022-08-20T01:11:28.242Z,74.48
2022-08-20T01:12:29.211Z,74.88
2022-08-20T01:13:28.194Z,75.18
2022-08-20T01:14:28.182Z,74.68
2022-08-20T01:15:31.019Z,75.09
2022-08-20T01:16:28.285Z,74.68
2022-08-20T01:17:28.151Z,74.88
2022-08-20T01:18:28.139Z,75.18
2022-08-20T01:19:29.209Z,75.79
2022-08-20T01:20:28.112Z,76.09
2022-08-20T01:21:28.105Z,75.32
2022-08-20T01:22:28.113Z,74.32
2022-08-20T01:23:28.101Z,74.21
2022-08-20T01:24:28.070Z,74.41
2022-08-20T01:25:28.061Z,74.58
2022-08-20T01:26:28.078Z,74.98
2022-08-20T01:27:28.038Z,75.62
2022-08-20T01:28:28.185Z,74.82
2022-08-20T01:29:38.672Z,74.52
2022-08-20T01:30:28.006Z,74.82
2022-08-20T01:31:28.016Z,74.72
2022-08-20T01:32:27.984Z,74.92
2022-08-20T01:33:27.992Z,75.22
2022-08-20T01:34:27.960Z,75.22
2022-08-20T01:35:27.949Z,74.92
2022-08-20T01:36:27.966Z,74.32
2022-08-20T01:37:31.374Z,74.72
2022-08-20T01:38:27.917Z,74.52
2022-08-20T01:39:27.904Z,74.92
2022-08-20T01:40:27.899Z,74.92
2022-08-20T01:41:28.320Z,74.82
2022-08-20T01:42:27.883Z,74.82
2022-08-20T01:43:27.861Z,75.32
2022-08-20T01:44:27.850Z,74.92
2022-08-20T01:45:27.984Z,75.22
2022-08-20T01:46:27.849Z,75.22
2022-08-20T01:47:27.819Z,75.42
2022-08-20T01:48:27.804Z,75.12
2022-08-20T01:49:27.793Z,75.46
2022-08-20T01:50:27.821Z,75.76
2022-08-20T01:51:27.773Z,75.66
2022-08-20T01:52:27.761Z,75.76
2022-08-20T01:53:27.748Z,76.16
2022-08-20T01:54:27.766Z,76.06
2022-08-20T01:55:27.731Z,76.56
2022-08-20T01:56:27.718Z,76.80
2022-08-20T01:57:27.727Z,77.11
2022-08-20T01:58:27.695Z,77.31
2022-08-20T01:59:27.685Z,77.31
2022-08-20T02:00:27.695Z,77.11
2022-08-20T02:01:27.707Z,77.61
2022-08-20T02:02:27.657Z,77.50
2022-08-20T02:03:27.637Z,77.31
2022-08-20T02:04:27.628Z,77.91
2022-08-20T02:05:30.679Z,77.50
2022-08-20T02:06:27.627Z,77.84
2022-08-20T02:07:27.591Z,78.15
2022-08-20T02:08:27.604Z,78.41
2022-08-20T02:09:27.650Z,78.55
2022-08-20T02:10:27.574Z,78.55
2022-08-20T02:11:27.569Z,78.45
2022-08-20T02:12:27.542Z,78.65
2022-08-20T02:13:27.523Z,78.85
2022-08-20T02:14:27.534Z,78.65
2022-08-20T02:15:34.980Z,78.96
2022-08-20T02:16:28.513Z,79.66
2022-08-20T02:17:27.481Z,79.25
2022-08-20T02:18:27.474Z,79.56
2022-08-20T02:19:27.460Z,79.39
2022-08-20T02:20:27.450Z,80.20
2022-08-20T02:21:27.457Z,79.80
2022-08-20T02:22:27.427Z,80.30
2022-08-20T02:23:27.416Z,80.00
2022-08-20T02:24:27.404Z,80.90
2022-08-20T02:25:27.395Z,80.80
2022-08-20T02:26:27.403Z,81.10
2022-08-20T02:27:27.369Z,80.80
2022-08-20T02:28:27.390Z,81.10
2022-08-20T02:29:27.352Z,81.10
2022-08-20T02:30:27.811Z,81.41
2022-08-20T02:31:29.880Z,81.30
2022-08-20T02:32:33.702Z,80.90
2022-08-20T02:33:28.301Z,80.90
2022-08-20T02:34:27.293Z,81.41
2022-08-20T02:35:27.280Z,81.30
2022-08-20T02:36:27.270Z,81.71
2022-08-20T02:37:27.279Z,81.41
2022-08-20T02:38:27.246Z,82.38
2022-08-20T02:39:27.237Z,81.77
2022-08-20T02:40:30.879Z,82.28
2022-08-20T02:41:27.214Z,81.71
2022-08-20T02:42:27.230Z,82.38
2022-08-20T02:43:27.188Z,81.98
2022-08-20T02:44:27.182Z,81.67
2022-08-20T02:45:27.168Z,82.38
2022-08-20T02:46:27.180Z,82.28
2022-08-20T02:47:27.147Z,82.38
2022-08-20T02:48:27.158Z,82.48
2022-08-20T02:49:27.126Z,82.98
2022-08-20T02:50:27.114Z,82.28
2022-08-20T02:51:30.350Z,81.98
2022-08-20T02:52:27.112Z,81.98
2022-08-20T02:53:27.076Z,82.38
2022-08-20T02:54:27.076Z,82.28
2022-08-20T02:55:28.245Z,81.57
2022-08-20T02:56:27.056Z,81.57
2022-08-20T02:57:27.052Z,81.27
2022-08-20T02:58:27.025Z,81.47
2022-08-20T02:59:27.011Z,81.27
2022-08-20T03:00:27.087Z,81.47
2022-08-20T03:01:27.047Z,81.37
2022-08-20T03:02:27.005Z,81.47
2022-08-20T03:03:26.968Z,81.17
2022-08-20T03:04:26.957Z,81.37
2022-08-20T03:05:26.945Z,81.47
2022-08-20T03:06:26.957Z,81.07
2022-08-20T03:07:26.921Z,81.27
2022-08-20T03:08:26.911Z,81.47
2022-08-20T03:09:26.897Z,81.27
2022-08-20T03:10:26.916Z,81.07
2022-08-20T03:11:26.878Z,81.17
2022-08-20T03:12:26.869Z,81.07
2022-08-20T03:13:26.861Z,81.37
2022-08-20T03:14:26.846Z,81.61
2022-08-20T03:15:26.855Z,81.37
2022-08-20T03:16:26.824Z,81.07
2022-08-20T03:17:26.811Z,81.07
2022-08-20T03:18:26.823Z,81.17
2022-08-20T03:19:26.789Z,81.47
2022-08-20T03:20:26.779Z,81.17
2022-08-20T03:21:26.766Z,81.27
2022-08-20T03:22:26.779Z,81.07
2022-08-20T03:23:26.744Z,81.17
2022-08-20T03:24:26.758Z,81.07
2022-08-20T03:25:26.720Z,81.17
2022-08-20T03:26:26.713Z,81.17
2022-08-20T03:27:29.954Z,81.57
2022-08-20T03:28:27.687Z,81.67
2022-08-20T03:29:26.699Z,81.77
2022-08-20T03:30:26.664Z,81.57
2022-08-20T03:31:26.678Z,81.37
2022-08-20T03:32:26.662Z,81.37
2022-08-20T03:33:26.656Z,80.97
2022-08-20T03:34:26.620Z,81.17
2022-08-20T03:35:26.613Z,81.07
2022-08-20T03:36:28.775Z,81.91
2022-08-20T03:37:26.587Z,81.57
2022-08-20T03:38:32.791Z,81.61
2022-08-20T03:39:27.587Z,81.71
2022-08-20T03:40:26.579Z,81.71
2022-08-20T03:41:26.545Z,82.11
2022-08-20T03:42:26.537Z,81.81
2022-08-20T03:43:26.522Z,81.81
2022-08-20T03:44:26.510Z,81.81
2022-08-20T03:45:26.506Z,81.91
2022-08-20T03:46:26.512Z,81.91
2022-08-20T03:47:26.477Z,82.42
2022-08-20T03:48:26.465Z,82.21
2022-08-20T03:49:26.454Z,82.01
2022-08-20T03:50:26.446Z,82.42
2022-08-20T03:51:26.457Z,82.51
2022-08-20T03:52:26.419Z,82.71
2022-08-20T03:53:26.431Z,82.71
2022-08-20T03:54:31.493Z,83.42
2022-08-20T03:55:27.421Z,82.82
2022-08-20T03:56:26.377Z,82.76
2022-08-20T03:57:26.391Z,83.12
2022-08-20T03:58:31.609Z,83.02
2022-08-20T03:59:27.343Z,83.36
2022-08-20T04:00:26.355Z,83.36
2022-08-20T04:01:45.079Z,83.26
2022-08-20T04:02:27.307Z,83.26
2022-08-20T04:03:26.305Z,83.56
2022-08-20T04:04:26.285Z,83.56
2022-08-20T04:05:28.274Z,84.37
2022-08-20T04:06:26.349Z,84.17
2022-08-20T04:07:26.254Z,84.77
2022-08-20T04:08:26.239Z,84.07
2022-08-20T04:09:26.252Z,84.07
2022-08-20T04:10:26.222Z,84.67
2022-08-20T04:11:26.208Z,84.67
2022-08-20T04:12:26.219Z,84.67
2022-08-20T04:13:26.197Z,84.57
2022-08-20T04:14:26.178Z,84.37
2022-08-20T04:15:26.166Z,84.94
2022-08-20T04:16:26.175Z,85.03
2022-08-20T04:17:26.163Z,84.88
2022-08-20T04:18:26.127Z,84.57
2022-08-20T04:19:26.144Z,84.43
2022-08-20T04:20:26.186Z,84.74
2022-08-20T04:21:26.203Z,84.67
2022-08-20T04:22:27.108Z,84.83
2022-08-20T04:23:26.098Z,85.44
2022-08-20T04:24:31.935Z,85.03
2022-08-20T04:25:27.076Z,85.54
2022-08-20T04:26:26.042Z,85.74
2022-08-20T04:27:26.029Z,85.54
2022-08-20T04:28:26.021Z,84.94
2022-08-20T04:29:26.014Z,84.97
2022-08-20T04:30:26.993Z,85.14
2022-08-20T04:31:26.018Z,85.03
2022-08-20T04:32:25.979Z,84.63
2022-08-20T04:33:33.862Z,84.63
2022-08-20T04:34:26.953Z,84.23
2022-08-20T04:35:25.941Z,84.43
2022-08-20T04:36:25.929Z,84.83
2022-08-20T04:37:25.921Z,84.63
2022-08-20T04:38:25.931Z,84.23
2022-08-20T04:39:26.896Z,84.03
2022-08-20T04:40:25.887Z,83.52
2022-08-20T04:41:25.878Z,83.62
2022-08-20T04:42:25.888Z,83.62
2022-08-20T04:43:25.850Z,83.83
2022-08-20T04:44:25.842Z,83.52
2022-08-20T04:45:25.830Z,83.52
2022-08-20T04:46:26.197Z,83.79
2022-08-20T04:47:34.545Z,83.69
2022-08-20T04:48:26.795Z,83.39
2022-08-20T04:49:25.787Z,83.08
2022-08-20T04:50:25.773Z,83.39
2022-08-20T04:51:26.943Z,83.59
2022-08-20T04:52:25.759Z,83.79
2022-08-20T04:53:26.041Z,83.79
2022-08-20T04:54:25.732Z,83.59
2022-08-20T04:55:25.718Z,83.59
2022-08-20T04:56:25.704Z,83.59
2022-08-20T04:57:25.702Z,83.69
2022-08-20T04:58:25.703Z,83.79
2022-08-20T04:59:25.676Z,83.99
2022-08-20T05:00:25.667Z,83.89
2022-08-20T05:01:25.689Z,83.75
2022-08-20T05:02:25.637Z,84.09
2022-08-20T05:03:25.652Z,83.45
2022-08-20T05:04:25.642Z,83.48
2022-08-20T05:05:25.604Z,83.75
2022-08-20T05:06:25.675Z,83.84
2022-08-20T05:07:25.607Z,83.54
2022-08-20T05:08:25.576Z,83.75
2022-08-20T05:09:25.585Z,83.54
2022-08-20T05:10:25.550Z,83.75
2022-08-20T05:11:35.444Z,83.34
2022-08-20T05:12:26.524Z,83.75
2022-08-20T05:13:27.517Z,83.54
2022-08-20T05:14:25.505Z,83.34
2022-08-20T05:15:25.495Z,83.14
2022-08-20T05:16:25.508Z,83.25
2022-08-20T05:17:25.504Z,82.84
2022-08-20T05:18:25.461Z,82.94
2022-08-20T05:19:25.454Z,83.71
2022-08-20T05:20:25.443Z,83.51
2022-08-20T05:21:25.427Z,83.71
2022-08-20T05:22:25.417Z,83.81
2022-08-20T05:23:26.425Z,84.01
2022-08-20T05:24:25.416Z,83.61
2022-08-20T05:25:25.385Z,83.40
2022-08-20T05:26:25.371Z,83.37
2022-08-20T05:27:25.382Z,83.17
2022-08-20T05:28:25.375Z,82.97
2022-08-20T05:29:25.365Z,83.76
2022-08-20T05:30:25.327Z,83.37
2022-08-20T05:31:32.092Z,83.57
2022-08-20T05:32:26.302Z,83.67
2022-08-20T05:33:25.295Z,83.47
2022-08-20T05:34:25.302Z,83.23
2022-08-20T05:35:25.271Z,83.17
2022-08-20T05:36:25.281Z,83.63
2022-08-20T05:37:25.248Z,83.73
2022-08-20T05:38:25.238Z,83.63
2022-08-20T05:39:25.248Z,83.63
2022-08-20T05:40:25.275Z,83.33
2022-08-20T05:41:28.992Z,83.33
2022-08-20T05:42:25.191Z,82.78
2022-08-20T05:43:25.184Z,83.09
2022-08-20T05:44:25.192Z,82.89
2022-08-20T05:45:25.163Z,82.68
2022-08-20T05:46:25.148Z,82.45
2022-08-20T05:47:25.139Z,82.75
2022-08-20T05:48:25.131Z,82.84
2022-08-20T05:49:25.140Z,82.84
2022-08-20T05:50:25.105Z,82.84
2022-08-20T05:51:25.092Z,82.34
2022-08-20T05:52:25.083Z,82.64
2022-08-20T05:53:25.093Z,82.64
2022-08-20T05:54:25.062Z,82.84
2022-08-20T05:55:25.050Z,82.60
2022-08-20T05:56:27.115Z,82.75
2022-08-20T05:57:25.049Z,82.84
2022-08-20T05:58:25.011Z,83.01
2022-08-20T05:59:25.014Z,82.51
2022-08-20T06:00:24.993Z,82.81
2022-08-20T06:01:25.026Z,83.11
2022-08-20T06:02:24.973Z,83.21
2022-08-20T06:03:24.967Z,84.47
2022-08-20T06:04:25.033Z,84.21
2022-08-20T06:05:24.939Z,84.88
2022-08-20T06:06:45.214Z,85.88
2022-08-20T06:07:25.920Z,85.82
2022-08-20T06:08:24.908Z,85.97
2022-08-20T06:09:32.004Z,85.47
2022-08-20T06:10:25.906Z,85.97
2022-08-20T06:11:24.873Z,86.58
2022-08-20T06:12:24.861Z,86.58
2022-08-20T06:13:24.851Z,86.88
2022-08-20T06:14:24.863Z,86.88
2022-08-20T06:15:24.831Z,86.68
2022-08-20T06:16:24.826Z,87.58
2022-08-20T06:17:24.807Z,87.58
2022-08-20T06:18:28.341Z,87.68
2022-08-20T06:19:25.145Z,87.84
2022-08-20T06:20:24.772Z,87.74
2022-08-20T06:21:24.762Z,87.54
2022-08-20T06:22:24.890Z,87.24
2022-08-20T06:23:24.742Z,87.44
2022-08-20T06:24:24.748Z,87.14
2022-08-20T06:25:24.721Z,87.14
2022-08-20T06:26:26.565Z,87.24
2022-08-20T06:27:25.696Z,87.94
2022-08-20T06:28:24.685Z,87.94
2022-08-20T06:29:24.706Z,87.54
2022-08-20T06:30:24.661Z,88.10
2022-08-20T06:31:24.669Z,88.10
2022-08-20T06:32:32.037Z,88.14
2022-08-20T06:33:25.629Z,88.60
2022-08-20T06:34:24.645Z,88.30
2022-08-20T06:35:24.610Z,88.30
2022-08-20T06:36:24.597Z,88.10
2022-08-20T06:37:31.684Z,88.00
2022-08-20T06:38:25.573Z,88.06
2022-08-20T06:39:24.564Z,88.86
2022-08-20T06:40:24.573Z,88.56
2022-08-20T06:41:35.727Z,89.46
2022-08-20T06:42:25.528Z,89.26
2022-08-20T06:43:24.518Z,88.06
2022-08-20T06:44:24.536Z,88.46
2022-08-20T06:45:24.598Z,88.06
2022-08-20T06:46:24.525Z,88.36
2022-08-20T06:47:24.476Z,87.96
2022-08-20T06:48:24.461Z,88.86
2022-08-20T06:49:24.488Z,89.56
2022-08-20T06:50:24.467Z,89.26
2022-08-20T06:51:24.430Z,90.26
2022-08-20T06:52:42.849Z,90.36
2022-08-20T06:53:25.415Z,90.46
2022-08-20T06:54:29.253Z,90.41
2022-08-20T06:55:25.408Z,90.81
2022-08-20T06:56:24.376Z,91.01
2022-08-20T06:57:24.364Z,90.50
2022-08-20T06:58:36.739Z,90.61
2022-08-20T06:59:25.342Z,91.31
2022-08-20T07:00:24.355Z,91.61
2022-08-20T07:01:24.449Z,91.65
2022-08-20T07:02:30.137Z,92.11
2022-08-20T07:03:25.328Z,92.15
2022-08-20T07:04:24.288Z,92.66
2022-08-20T07:05:24.276Z,93.46
2022-08-20T07:06:24.296Z,93.55
2022-08-20T07:07:24.258Z,94.46
2022-08-20T07:08:24.264Z,94.76
2022-08-20T07:09:24.233Z,94.60
2022-08-20T07:10:24.224Z,95.16
2022-08-20T07:11:28.229Z,94.90
2022-08-20T07:12:24.213Z,95.66
2022-08-20T07:13:24.188Z,96.01
2022-08-20T07:14:24.176Z,95.91
2022-08-20T07:15:24.166Z,96.11
2022-08-20T07:16:24.175Z,96.01
2022-08-20T07:17:24.356Z,95.91
2022-08-20T07:18:28.716Z,95.55
2022-08-20T07:19:25.149Z,96.56
2022-08-20T07:20:24.147Z,96.56
2022-08-20T07:21:24.121Z,96.31
2022-08-20T07:22:24.091Z,96.21
2022-08-20T07:23:24.106Z,96.01
2022-08-20T07:24:24.071Z,96.21
2022-08-20T07:25:25.055Z,96.86
2022-08-20T07:26:24.082Z,96.81
2022-08-20T07:27:24.034Z,96.51
2022-08-20T07:28:24.046Z,96.71
2022-08-20T07:29:24.020Z,96.51
2022-08-20T07:30:24.063Z,96.31
2022-08-20T07:31:23.990Z,96.71
2022-08-20T07:32:23.980Z,96.81
2022-08-20T07:33:24.998Z,97.11
2022-08-20T07:34:23.955Z,97.61
2022-08-20T07:35:23.944Z,97.57
2022-08-20T07:36:23.934Z,97.52
2022-08-20T07:37:23.925Z,97.41
2022-08-20T07:38:23.955Z,97.37
2022-08-20T07:39:23.923Z,97.52
2022-08-20T07:40:26.136Z,97.02
2022-08-20T07:41:23.913Z,96.81
2022-08-20T07:42:23.868Z,97.02
2022-08-20T07:43:23.878Z,97.61
2022-08-20T07:44:31.066Z,96.81
2022-08-20T07:45:24.861Z,96.61
2022-08-20T07:46:23.824Z,96.81
2022-08-20T07:47:24.813Z,96.01
2022-08-20T07:48:31.016Z,96.11
2022-08-20T07:49:24.791Z,96.47
2022-08-20T07:50:24.748Z,96.17
2022-08-20T07:51:23.871Z,96.26
2022-08-20T07:52:23.761Z,96.06
2022-08-20T07:53:23.748Z,96.56
2022-08-20T07:54:23.757Z,96.36
2022-08-20T07:55:23.794Z,96.77
2022-08-20T07:56:24.169Z,96.36
2022-08-20T07:57:24.239Z,96.06
2022-08-20T07:58:24.239Z,96.17
2022-08-20T07:59:24.701Z,95.47
2022-08-20T08:00:23.777Z,94.96
2022-08-20T08:01:23.817Z,94.86
2022-08-20T08:02:23.754Z,95.01
2022-08-20T08:03:40.587Z,94.82
2022-08-20T08:04:24.628Z,94.71
2022-08-20T08:05:23.827Z,95.01
2022-08-20T08:06:29.989Z,94.51
2022-08-20T08:07:24.614Z,94.66
2022-08-20T08:08:23.593Z,94.82
2022-08-20T08:09:23.592Z,95.32
2022-08-20T08:10:23.570Z,95.82
2022-08-20T08:11:23.847Z,95.67
2022-08-20T08:12:23.543Z,95.92
2022-08-20T08:13:23.528Z,95.62
2022-08-20T08:14:23.807Z,95.06
2022-08-20T08:15:23.521Z,93.96
2022-08-20T08:16:23.499Z,94.71
2022-08-20T08:17:23.482Z,94.01
2022-08-20T08:18:23.477Z,93.81
2022-08-20T08:19:23.788Z,94.01
2022-08-20T08:20:23.450Z,94.21
2022-08-20T08:21:23.439Z,94.12
2022-08-20T08:22:23.428Z,94.51
2022-08-20T08:23:31.487Z,94.42
2022-08-20T08:24:28.315Z,94.27
2022-08-20T08:25:23.395Z,94.17
2022-08-20T08:26:23.386Z,94.02
2022-08-20T08:27:23.393Z,94.32
2022-08-20T08:28:23.363Z,93.98
2022-08-20T08:29:23.351Z,93.18
2022-08-20T08:30:23.362Z,92.38
2022-08-20T08:31:23.334Z,91.98
2022-08-20T08:32:23.317Z,93.13
2022-08-20T08:33:23.308Z,92.54
2022-08-20T08:34:23.317Z,92.39
2022-08-20T08:35:23.308Z,92.13
2022-08-20T08:36:23.271Z,91.89
2022-08-20T08:37:23.284Z,91.39
2022-08-20T08:38:23.253Z,90.55
2022-08-20T08:39:23.242Z,89.25
2022-08-20T08:40:23.334Z,90.00
2022-08-20T08:41:23.219Z,89.22
2022-08-20T08:42:23.214Z,89.53
2022-08-20T08:43:23.197Z,86.34
2022-08-20T08:44:23.227Z,84.01
2022-08-20T08:45:23.192Z,83.25
2022-08-20T08:46:23.166Z,83.95
2022-08-20T08:47:23.152Z,83.65
2022-08-20T08:48:23.150Z,83.25
2022-08-20T08:49:23.158Z,82.95
2022-08-20T08:50:43.829Z,84.45
2022-08-20T08:51:24.144Z,85.39
2022-08-20T08:52:23.099Z,84.79
2022-08-20T08:53:23.090Z,86.19
2022-08-20T08:54:23.094Z,86.58
2022-08-20T08:55:23.085Z,86.98
2022-08-20T08:56:23.056Z,86.52
2022-08-20T08:57:23.042Z,85.67
2022-08-20T08:58:23.034Z,86.36
2022-08-20T08:59:23.047Z,86.31
2022-08-20T09:00:23.013Z,86.51
2022-08-20T09:01:54.849Z,87.81
2022-08-20T09:02:24.076Z,87.75
2022-08-20T09:03:22.975Z,88.10
2022-08-20T09:04:22.990Z,88.15
2022-08-20T09:05:22.953Z,88.05
2022-08-20T09:06:22.943Z,88.15
2022-08-20T09:07:22.933Z,89.35
2022-08-20T09:08:22.921Z,89.15
2022-08-20T09:09:22.927Z,89.45
2022-08-20T09:10:23.480Z,89.49
2022-08-20T09:11:22.889Z,89.15
2022-08-20T09:12:22.878Z,89.49
2022-08-20T09:13:22.867Z,89.65
2022-08-20T09:14:22.893Z,89.19
2022-08-20T09:15:22.845Z,88.99
2022-08-20T09:16:22.836Z,89.05
2022-08-20T09:17:22.827Z,88.95
2022-08-20T09:18:22.816Z,88.25
2022-08-20T09:19:22.805Z,88.10
2022-08-20T09:20:27.018Z,88.21
2022-08-20T09:21:22.782Z,87.75
2022-08-20T09:22:22.794Z,87.21
2022-08-20T09:23:22.761Z,87.71
2022-08-20T09:24:22.756Z,88.31
2022-08-20T09:25:22.758Z,87.35
2022-08-20T09:26:22.734Z,87.61
2022-08-20T09:27:23.713Z,88.21
2022-08-20T09:28:22.711Z,88.06
2022-08-20T09:29:22.697Z,87.07
2022-08-20T09:30:22.705Z,87.37
2022-08-20T09:31:22.679Z,87.23
2022-08-20T09:32:22.662Z,87.23
2022-08-20T09:33:22.654Z,86.43
2022-08-20T09:34:22.721Z,86.43
2022-08-20T09:35:22.630Z,86.88
2022-08-20T09:36:31.855Z,86.54
2022-08-20T09:37:23.604Z,84.51
2022-08-20T09:38:22.602Z,82.57
2022-08-20T09:39:22.608Z,81.80
2022-08-20T09:40:22.666Z,81.76
2022-08-20T09:41:22.563Z,81.16
2022-08-20T09:42:22.553Z,80.43
2022-08-20T09:43:22.540Z,79.50
2022-08-20T09:44:22.553Z,77.31
2022-08-20T09:45:22.544Z,77.94
2022-08-20T09:46:27.252Z,77.25
2022-08-20T09:47:23.517Z,76.32
2022-08-20T09:48:29.754Z,76.32
2022-08-20T09:49:23.473Z,77.21
2022-08-20T09:50:22.465Z,78.50
2022-08-20T09:51:22.477Z,78.56
2022-08-20T09:52:22.445Z,76.68
2022-08-20T09:53:22.432Z,77.23
2022-08-20T09:54:22.420Z,77.23
2022-08-20T09:55:22.412Z,77.14
2022-08-20T09:56:22.431Z,77.04
2022-08-20T09:57:22.389Z,76.97
2022-08-20T09:58:22.381Z,77.91
2022-08-20T09:59:22.366Z,76.42
2022-08-20T10:00:22.654Z,78.04
2022-08-20T10:01:22.426Z,79.17
2022-08-20T10:02:22.332Z,79.27
2022-08-20T10:03:22.321Z,80.60
2022-08-20T10:04:22.312Z,81.56
2022-08-20T10:05:22.323Z,81.01
2022-08-20T10:06:22.314Z,79.31
2022-08-20T10:07:22.281Z,80.00
2022-08-20T10:08:22.271Z,79.17
2022-08-20T10:09:22.257Z,78.48
2022-08-20T10:10:22.271Z,78.18
2022-08-20T10:11:22.259Z,77.28
2022-08-20T10:12:22.228Z,77.25
2022-08-20T10:13:22.213Z,76.81
2022-08-20T10:14:22.207Z,77.57
2022-08-20T10:15:22.191Z,76.64
2022-08-20T10:16:22.211Z,76.14
2022-08-20T10:17:22.174Z,74.91
2022-08-20T10:18:22.160Z,74.12
2022-08-20T10:19:22.151Z,73.89
2022-08-20T10:20:22.141Z,73.25
2022-08-20T10:21:22.128Z,73.55
2022-08-20T10:22:22.138Z,73.46
2022-08-20T10:23:22.107Z,74.35
2022-08-20T10:24:22.098Z,74.80
2022-08-20T10:25:22.086Z,72.39
2022-08-20T10:26:22.074Z,72.30
2022-08-20T10:27:22.085Z,69.53
2022-08-20T10:28:22.075Z,70.21
2022-08-20T10:29:22.063Z,69.62
2022-08-20T10:30:22.034Z,70.81
2022-08-20T10:31:22.023Z,71.77
2022-08-20T10:32:22.013Z,70.84
2022-08-20T10:33:22.018Z,69.09
2022-08-20T10:34:22.014Z,67.90
2022-08-20T10:35:22.000Z,68.57
2022-08-20T10:36:21.970Z,69.95
2022-08-20T10:37:21.976Z,70.35
2022-08-20T10:38:21.947Z,69.26
2022-08-20T10:39:21.938Z,70.51
2022-08-20T10:40:22.009Z,70.09
2022-08-20T10:41:21.916Z,69.65
2022-08-20T10:42:21.902Z,68.17
2022-08-20T10:43:21.898Z,67.08
2022-08-20T10:44:21.884Z,67.97
2022-08-20T10:45:21.888Z,69.65
2022-08-20T10:46:21.889Z,70.55
2022-08-20T10:47:21.850Z,70.12
2022-08-20T10:48:21.861Z,71.61
2022-08-20T10:49:21.836Z,72.00
2022-08-20T10:50:21.821Z,70.75
2022-08-20T10:51:21.828Z,70.94
2022-08-20T10:52:22.806Z,69.32
2022-08-20T10:53:21.782Z,69.72
2022-08-20T10:54:21.773Z,67.61
2022-08-20T10:55:21.880Z,67.11
2022-08-20T10:56:21.755Z,66.82
2022-08-20T10:57:21.745Z,66.98
2022-08-20T10:58:23.910Z,67.68
2022-08-20T10:59:21.719Z,66.58
2022-08-20T11:00:21.732Z,67.51
2022-08-20T11:01:31.323Z,67.84
2022-08-20T11:02:22.807Z,70.05
2022-08-20T11:03:21.678Z,67.50
2022-08-20T11:04:21.667Z,67.50
2022-08-20T11:05:21.678Z,68.33
2022-08-20T11:06:21.646Z,69.03
2022-08-20T11:07:21.634Z,69.16
2022-08-20T11:08:22.654Z,70.45
2022-08-20T11:09:22.615Z,69.56
2022-08-20T11:10:21.624Z,68.86
2022-08-20T11:11:21.590Z,69.46
2022-08-20T11:12:21.582Z,70.55
2022-08-20T11:13:21.591Z,70.39
2022-08-20T11:14:21.561Z,70.88
2022-08-20T11:15:21.546Z,71.61
2022-08-20T11:16:21.539Z,72.41
2022-08-20T11:17:21.551Z,73.93
2022-08-20T11:18:21.518Z,74.82
2022-08-20T11:19:21.523Z,75.79
2022-08-20T11:20:21.607Z,77.68
2022-08-20T11:21:21.481Z,78.08
2022-08-20T11:22:21.475Z,78.58
2022-08-20T11:23:21.462Z,80.07
2022-08-20T11:24:21.452Z,80.66
2022-08-20T11:25:21.436Z,80.51
2022-08-20T11:26:21.454Z,80.44
2022-08-20T11:27:21.429Z,79.88
2022-08-20T11:28:31.928Z,80.78
2022-08-20T11:29:22.398Z,81.68
2022-08-20T11:30:21.386Z,81.88
2022-08-20T11:31:21.374Z,82.18
2022-08-20T11:32:21.466Z,83.91
2022-08-20T11:33:21.352Z,83.31
2022-08-20T11:34:21.344Z,83.81
2022-08-20T11:35:50.315Z,83.11
2022-08-20T11:36:22.320Z,84.01
2022-08-20T11:37:21.319Z,84.11
2022-08-20T11:38:21.299Z,82.02
2022-08-20T11:39:21.288Z,82.12
2022-08-20T11:40:21.374Z,82.12
2022-08-20T11:41:21.271Z,81.42
2022-08-20T11:42:21.256Z,80.62
2022-08-20T11:43:21.243Z,81.18
2022-08-20T11:44:21.770Z,78.95
2022-08-20T11:45:21.244Z,79.31
2022-08-20T11:46:23.419Z,77.02
2022-08-20T11:47:22.199Z,77.46
2022-08-20T11:48:21.190Z,78.61
2022-08-20T11:49:21.200Z,77.68
2022-08-20T11:50:21.189Z,76.53
2022-08-20T11:51:21.155Z,76.03
2022-08-20T11:52:21.146Z,76.72
2022-08-20T11:53:22.247Z,76.72
2022-08-20T11:54:21.126Z,75.93
2022-08-20T11:55:21.113Z,76.03
2022-08-20T11:56:22.126Z,76.19
2022-08-20T11:57:21.091Z,75.65
2022-08-20T11:58:21.101Z,74.96
2022-08-20T11:59:21.071Z,74.03
2022-08-20T12:00:21.057Z,73.24
2022-08-20T12:01:22.048Z,72.67
2022-08-20T12:02:21.133Z,72.94
2022-08-20T12:03:21.087Z,72.31
2022-08-20T12:04:21.022Z,72.20
2022-08-20T12:05:21.005Z,70.81
2022-08-20T12:06:20.991Z,70.85
2022-08-20T12:07:21.006Z,70.12
2022-08-20T12:08:26.457Z,70.02
2022-08-20T12:09:24.815Z,69.82
2022-08-20T12:10:20.949Z,69.23
2022-08-20T12:11:20.960Z,68.57
2022-08-20T12:12:20.949Z,68.66
2022-08-20T12:13:20.917Z,68.86
2022-08-20T12:14:21.901Z,68.57
2022-08-20T12:15:20.926Z,69.16
2022-08-20T12:16:20.907Z,69.96
2022-08-20T12:17:20.896Z,70.25
2022-08-20T12:18:20.863Z,70.81
2022-08-20T12:19:20.854Z,70.29
2022-08-20T12:20:20.839Z,67.50
2022-08-20T12:21:20.830Z,68.50
2022-08-20T12:22:25.185Z,68.20
2022-08-20T12:23:20.813Z,67.18
2022-08-20T12:24:20.797Z,67.27
2022-08-20T12:25:20.789Z,66.88
2022-08-20T12:26:20.797Z,67.47
2022-08-20T12:27:20.764Z,68.33
2022-08-20T12:28:25.088Z,67.18
2022-08-20T12:29:21.741Z,67.47
2022-08-20T12:30:20.735Z,67.90
2022-08-20T12:31:20.741Z,68.73
2022-08-20T12:32:20.731Z,69.53
2022-08-20T12:33:20.707Z,70.29
2022-08-20T12:34:20.699Z,69.26
2022-08-20T12:35:20.697Z,69.65
2022-08-20T12:36:20.674Z,68.83
2022-08-20T12:37:20.732Z,68.60
2022-08-20T12:38:20.645Z,67.21
2022-08-20T12:39:20.635Z,66.65
2022-08-20T12:40:27.439Z,67.94
2022-08-20T12:41:21.612Z,68.13
2022-08-20T12:42:20.628Z,67.24
2022-08-20T12:43:24.703Z,66.94
2022-08-20T12:44:20.580Z,67.14
2022-08-20T12:45:20.571Z,68.13
2022-08-20T12:46:20.558Z,68.83
2022-08-20T12:47:20.761Z,69.03
2022-08-20T12:48:20.538Z,67.71
2022-08-20T12:49:20.528Z,65.42
2022-08-20T12:50:20.538Z,66.82
2022-08-20T12:51:20.507Z,67.44
2022-08-20T12:52:20.498Z,66.94